sensor_id;sensor_type;location;lat;lon;timestamp;pressure;altitude;pressure_sealevel;temperature;humidity
36378;BME280;22402;42.746;23.606;2023-01-25T00:00:01;94504.31;;;1.07;94.84
36378;BME280;22402;42.746;23.606;2023-01-25T00:02:27;94509.63;;;1.03;95.05
36378;BME280;22402;42.746;23.606;2023-01-25T00:04:52;94508.69;;;1.04;95.33
36378;BME280;22402;42.746;23.606;2023-01-25T00:07:17;94507.28;;;0.97;95.47
36378;BME280;22402;42.746;23.606;2023-01-25T00:09:43;94510.81;;;0.94;95.68
36378;BME280;22402;42.746;23.606;2023-01-25T00:12:08;94508.31;;;0.93;96.27
36378;BME280;22402;42.746;23.606;2023-01-25T00:14:33;94509.91;;;0.95;95.72
36378;BME280;22402;42.746;23.606;2023-01-25T00:16:59;94515.81;;;0.97;95.05
36378;BME280;22402;42.746;23.606;2023-01-25T00:19:24;94518.50;;;0.94;95.64
36378;BME280;22402;42.746;23.606;2023-01-25T00:21:49;94512.38;;;0.98;94.88
36378;BME280;22402;42.746;23.606;2023-01-25T00:24:14;94510.88;;;0.93;95.15
36378;BME280;22402;42.746;23.606;2023-01-25T00:26:41;94510.69;;;0.97;95.02
36378;BME280;22402;42.746;23.606;2023-01-25T00:29:06;94512.25;;;1.01;94.89
36378;BME280;22402;42.746;23.606;2023-01-25T00:37:09;94497.97;;;0.94;94.95
36378;BME280;22402;42.746;23.606;2023-01-25T00:39:36;94498.56;;;1.01;94.74
36378;BME280;22402;42.746;23.606;2023-01-25T00:42:01;94506.59;;;0.93;94.65
36378;BME280;22402;42.746;23.606;2023-01-25T00:44:27;94503.34;;;0.88;95.61
36378;BME280;22402;42.746;23.606;2023-01-25T00:46:52;94507.81;;;0.83;95.51
36378;BME280;22402;42.746;23.606;2023-01-25T00:49:22;94514.78;;;0.81;96.17
36378;BME280;22402;42.746;23.606;2023-01-25T00:51:48;94514.00;;;0.79;95.85
36378;BME280;22402;42.746;23.606;2023-01-25T00:54:13;94510.41;;;0.83;96.06
36378;BME280;22402;42.746;23.606;2023-01-25T00:56:39;94517.34;;;0.81;95.67
36378;BME280;22402;42.746;23.606;2023-01-25T00:59:05;94512.09;;;0.84;95.04
36378;BME280;22402;42.746;23.606;2023-01-25T01:01:30;94518.88;;;0.85;95.06
36378;BME280;22402;42.746;23.606;2023-01-25T01:03:56;94514.53;;;0.87;94.58
36378;BME280;22402;42.746;23.606;2023-01-25T01:06:21;94516.31;;;0.85;94.58
36378;BME280;22402;42.746;23.606;2023-01-25T01:08:46;94523.19;;;0.84;94.86
36378;BME280;22402;42.746;23.606;2023-01-25T01:11:12;94517.94;;;0.87;94.64
36378;BME280;22402;42.746;23.606;2023-01-25T01:13:38;94515.41;;;0.86;94.11
36378;BME280;22402;42.746;23.606;2023-01-25T01:16:05;94508.63;;;0.85;95.13
36378;BME280;22402;42.746;23.606;2023-01-25T01:18:40;94512.72;;;0.89;94.43
36378;BME280;22402;42.746;23.606;2023-01-25T01:21:05;94506.00;;;0.86;94.58
36378;BME280;22402;42.746;23.606;2023-01-25T01:23:31;94499.06;;;0.88;94.60
36378;BME280;22402;42.746;23.606;2023-01-25T01:26:03;94503.94;;;0.95;94.42
36378;BME280;22402;42.746;23.606;2023-01-25T01:28:31;94497.84;;;0.97;93.52
36378;BME280;22402;42.746;23.606;2023-01-25T01:31:01;94501.44;;;0.93;93.32
36378;BME280;22402;42.746;23.606;2023-01-25T01:33:26;94502.44;;;0.89;94.22
36378;BME280;22402;42.746;23.606;2023-01-25T01:35:51;94495.66;;;0.88;94.25
36378;BME280;22402;42.746;23.606;2023-01-25T01:38:17;94493.91;;;0.88;94.67
36378;BME280;22402;42.746;23.606;2023-01-25T01:40:46;94489.59;;;0.89;94.12
36378;BME280;22402;42.746;23.606;2023-01-25T01:43:22;94482.81;;;0.88;94.90
36378;BME280;22402;42.746;23.606;2023-01-25T01:51:26;94484.47;;;0.89;94.22
36378;BME280;22402;42.746;23.606;2023-01-25T01:54:02;94479.22;;;0.92;94.03
36378;BME280;22402;42.746;23.606;2023-01-25T01:56:49;94484.47;;;0.89;93.97
36378;BME280;22402;42.746;23.606;2023-01-25T01:59:17;94481.78;;;0.92;94.06
36378;BME280;22402;42.746;23.606;2023-01-25T02:01:44;94467.41;;;0.88;94.06
36378;BME280;22402;42.746;23.606;2023-01-25T02:04:11;94473.38;;;0.88;94.56
36378;BME280;22402;42.746;23.606;2023-01-25T02:06:46;94473.31;;;0.90;95.09
36378;BME280;22402;42.746;23.606;2023-01-25T02:09:18;94470.75;;;0.90;94.86
36378;BME280;22402;42.746;23.606;2023-01-25T02:11:45;94480.19;;;0.89;94.49
36378;BME280;22402;42.746;23.606;2023-01-25T02:14:12;94479.00;;;0.98;94.11
36378;BME280;22402;42.746;23.606;2023-01-25T02:16:40;94476.31;;;1.01;94.24
36378;BME280;22402;42.746;23.606;2023-01-25T02:19:06;94477.38;;;0.96;93.88
36378;BME280;22402;42.746;23.606;2023-01-25T02:21:39;94478.09;;;0.99;94.35
36378;BME280;22402;42.746;23.606;2023-01-25T02:24:14;94472.16;;;0.97;93.61
36378;BME280;22402;42.746;23.606;2023-01-25T02:26:44;94477.31;;;0.97;92.99
36378;BME280;22402;42.746;23.606;2023-01-25T02:29:10;94472.16;;;0.97;93.24
36378;BME280;22402;42.746;23.606;2023-01-25T02:31:36;94467.41;;;0.88;93.05
36378;BME280;22402;42.746;23.606;2023-01-25T02:34:01;94477.03;;;0.83;93.62
36378;BME280;22402;42.746;23.606;2023-01-25T02:36:28;94478.16;;;0.76;93.46
36378;BME280;22402;42.746;23.606;2023-01-25T02:39:13;94469.81;;;0.71;94.46
36378;BME280;22402;42.746;23.606;2023-01-25T02:41:41;94472.13;;;0.77;94.17
36378;BME280;22402;42.746;23.606;2023-01-25T02:44:12;94474.94;;;0.71;94.21
36378;BME280;22402;42.746;23.606;2023-01-25T02:46:39;94477.50;;;0.71;94.24
36378;BME280;22402;42.746;23.606;2023-01-25T02:49:08;94478.41;;;0.70;94.63
36378;BME280;22402;42.746;23.606;2023-01-25T02:51:36;94469.69;;;0.74;94.65
36378;BME280;22402;42.746;23.606;2023-01-25T02:54:04;94473.16;;;0.73;94.83
36378;BME280;22402;42.746;23.606;2023-01-25T02:56:30;94475.78;;;0.71;93.98
36378;BME280;22402;42.746;23.606;2023-01-25T02:58:55;94472.09;;;0.78;94.17
36378;BME280;22402;42.746;23.606;2023-01-25T03:01:20;94473.03;;;0.76;93.80
36378;BME280;22402;42.746;23.606;2023-01-25T03:03:46;94464.25;;;0.81;94.01
36378;BME280;22402;42.746;23.606;2023-01-25T03:06:11;94473.81;;;0.78;93.92
36378;BME280;22402;42.746;23.606;2023-01-25T03:08:36;94468.72;;;0.76;94.40
36378;BME280;22402;42.746;23.606;2023-01-25T03:11:03;94470.59;;;0.73;94.78
36378;BME280;22402;42.746;23.606;2023-01-25T03:13:29;94466.25;;;0.75;94.41
36378;BME280;22402;42.746;23.606;2023-01-25T03:15:59;94468.03;;;0.73;94.57
36378;BME280;22402;42.746;23.606;2023-01-25T03:18:24;94469.19;;;0.65;94.61
36378;BME280;22402;42.746;23.606;2023-01-25T03:20:50;94467.59;;;0.61;95.30
36378;BME280;22402;42.746;23.606;2023-01-25T03:23:15;94468.63;;;0.57;95.61
36378;BME280;22402;42.746;23.606;2023-01-25T03:25:40;94473.53;;;0.63;95.54
36378;BME280;22402;42.746;23.606;2023-01-25T03:28:06;94462.47;;;0.61;94.27
36378;BME280;22402;42.746;23.606;2023-01-25T03:30:31;94470.16;;;0.61;94.49
36378;BME280;22402;42.746;23.606;2023-01-25T03:32:56;94465.16;;;0.58;94.17
36378;BME280;22402;42.746;23.606;2023-01-25T03:35:22;94472.06;;;0.56;94.45
36378;BME280;22402;42.746;23.606;2023-01-25T03:37:47;94470.41;;;0.55;94.58
36378;BME280;22402;42.746;23.606;2023-01-25T03:40:12;94478.06;;;0.57;94.97
36378;BME280;22402;42.746;23.606;2023-01-25T03:42:38;94473.75;;;0.57;94.93
36378;BME280;22402;42.746;23.606;2023-01-25T03:45:03;94470.28;;;0.58;94.48
36378;BME280;22402;42.746;23.606;2023-01-25T03:47:29;94472.03;;;0.58;94.49
36378;BME280;22402;42.746;23.606;2023-01-25T04:02:50;94476.88;;;0.65;94.71
36378;BME280;22402;42.746;23.606;2023-01-25T04:05:15;94483.66;;;0.66;95.12
36378;BME280;22402;42.746;23.606;2023-01-25T04:07:41;94475.91;;;0.68;94.89
36378;BME280;22402;42.746;23.606;2023-01-25T04:10:07;94474.94;;;0.71;94.28
36378;BME280;22402;42.746;23.606;2023-01-25T04:12:32;94478.28;;;0.73;94.85
36378;BME280;22402;42.746;23.606;2023-01-25T04:14:58;94472.31;;;0.72;94.28
36378;BME280;22402;42.746;23.606;2023-01-25T04:17:23;94472.22;;;0.75;94.79
36378;BME280;22402;42.746;23.606;2023-01-25T04:19:48;94463.59;;;0.76;94.91
36378;BME280;22402;42.746;23.606;2023-01-25T04:22:14;94464.91;;;0.86;93.82
36378;BME280;22402;42.746;23.606;2023-01-25T04:24:39;94457.38;;;0.82;92.44
36378;BME280;22402;42.746;23.606;2023-01-25T04:27:05;94462.53;;;0.82;92.40
36378;BME280;22402;42.746;23.606;2023-01-25T04:29:30;94467.53;;;0.85;93.11
36378;BME280;22402;42.746;23.606;2023-01-25T04:31:55;94461.00;;;0.78;93.05
36378;BME280;22402;42.746;23.606;2023-01-25T04:34:21;94464.19;;;0.83;92.40
36378;BME280;22402;42.746;23.606;2023-01-25T04:36:46;94466.25;;;0.75;92.91
36378;BME280;22402;42.746;23.606;2023-01-25T04:39:12;94464.56;;;0.74;93.00
36378;BME280;22402;42.746;23.606;2023-01-25T04:41:37;94466.50;;;0.68;94.07
36378;BME280;22402;42.746;23.606;2023-01-25T04:44:02;94465.88;;;0.62;93.89
36378;BME280;22402;42.746;23.606;2023-01-25T04:46:29;94460.16;;;0.55;94.14
36378;BME280;22402;42.746;23.606;2023-01-25T04:48:54;94456.78;;;0.53;94.67
36378;BME280;22402;42.746;23.606;2023-01-25T04:51:20;94455.13;;;0.52;95.53
36378;BME280;22402;42.746;23.606;2023-01-25T04:53:45;94451.03;;;0.48;96.10
36378;BME280;22402;42.746;23.606;2023-01-25T04:56:11;94452.81;;;0.46;95.90
36378;BME280;22402;42.746;23.606;2023-01-25T04:58:36;94452.69;;;0.49;96.22
36378;BME280;22402;42.746;23.606;2023-01-25T05:01:02;94458.72;;;0.48;96.29
36378;BME280;22402;42.746;23.606;2023-01-25T05:03:28;94457.81;;;0.49;96.81
36378;BME280;22402;42.746;23.606;2023-01-25T05:05:53;94458.25;;;0.60;96.96
36378;BME280;22402;42.746;23.606;2023-01-25T05:08:19;94463.38;;;0.60;96.86
36378;BME280;22402;42.746;23.606;2023-01-25T05:10:44;94469.25;;;0.62;96.29
36378;BME280;22402;42.746;23.606;2023-01-25T05:13:10;94460.03;;;0.58;96.62
36378;BME280;22402;42.746;23.606;2023-01-25T05:15:35;94465.75;;;0.65;96.22
36378;BME280;22402;42.746;23.606;2023-01-25T05:18:01;94469.09;;;0.67;96.92
36378;BME280;22402;42.746;23.606;2023-01-25T05:20:26;94470.59;;;0.73;96.86
36378;BME280;22402;42.746;23.606;2023-01-25T05:22:52;94465.63;;;0.68;96.67
36378;BME280;22402;42.746;23.606;2023-01-25T05:25:17;94462.22;;;0.67;97.16
36378;BME280;22402;42.746;23.606;2023-01-25T05:27:42;94471.75;;;0.65;96.96
36378;BME280;22402;42.746;23.606;2023-01-25T05:30:08;94473.41;;;0.66;97.09
36378;BME280;22402;42.746;23.606;2023-01-25T05:32:33;94474.81;;;0.74;97.20
36378;BME280;22402;42.746;23.606;2023-01-25T05:34:59;94472.44;;;0.69;97.36
36378;BME280;22402;42.746;23.606;2023-01-25T05:37:24;94470.75;;;0.68;97.21
36378;BME280;22402;42.746;23.606;2023-01-25T05:39:49;94467.38;;;0.67;97.62
36378;BME280;22402;42.746;23.606;2023-01-25T05:42:18;94475.06;;;0.67;97.20
36378;BME280;22402;42.746;23.606;2023-01-25T05:44:43;94478.97;;;0.78;96.19
36378;BME280;22402;42.746;23.606;2023-01-25T05:47:13;94473.19;;;0.71;97.05
36378;BME280;22402;42.746;23.606;2023-01-25T05:49:39;94464.91;;;0.64;96.80
36378;BME280;22402;42.746;23.606;2023-01-25T05:52:04;94480.28;;;0.66;97.47
36378;BME280;22402;42.746;23.606;2023-01-25T05:54:30;94476.91;;;0.64;96.89
36378;BME280;22402;42.746;23.606;2023-01-25T05:56:55;94477.03;;;0.61;97.70
36378;BME280;22402;42.746;23.606;2023-01-25T05:59:21;94480.31;;;0.64;97.21
36378;BME280;22402;42.746;23.606;2023-01-25T06:01:46;94479.88;;;0.53;97.07
36378;BME280;22402;42.746;23.606;2023-01-25T06:04:15;94480.69;;;0.55;96.48
36378;BME280;22402;42.746;23.606;2023-01-25T06:06:40;94484.78;;;0.59;97.19
36378;BME280;22402;42.746;23.606;2023-01-25T06:09:06;94474.47;;;0.61;96.71
36378;BME280;22402;42.746;23.606;2023-01-25T06:11:31;94478.66;;;0.63;96.57
36378;BME280;22402;42.746;23.606;2023-01-25T06:13:57;94484.75;;;0.61;96.82
36378;BME280;22402;42.746;23.606;2023-01-25T06:16:22;94478.00;;;0.58;97.17
36378;BME280;22402;42.746;23.606;2023-01-25T06:18:48;94480.69;;;0.55;97.60
36378;BME280;22402;42.746;23.606;2023-01-25T06:21:13;94484.28;;;0.51;98.20
36378;BME280;22402;42.746;23.606;2023-01-25T06:23:38;94479.59;;;0.61;97.43
36378;BME280;22402;42.746;23.606;2023-01-25T06:26:11;94480.31;;;0.64;97.58
36378;BME280;22402;42.746;23.606;2023-01-25T06:28:37;94478.69;;;0.62;96.96
36378;BME280;22402;42.746;23.606;2023-01-25T06:31:09;94467.69;;;0.60;96.54
36378;BME280;22402;42.746;23.606;2023-01-25T06:33:35;94473.56;;;0.62;96.56
36378;BME280;22402;42.746;23.606;2023-01-25T06:36:03;94478.66;;;0.63;95.95
36378;BME280;22402;42.746;23.606;2023-01-25T06:38:30;94477.16;;;0.58;95.96
36378;BME280;22402;42.746;23.606;2023-01-25T06:40:58;94476.44;;;0.54;96.33
36378;BME280;22402;42.746;23.606;2023-01-25T06:43:23;94477.09;;;0.59;96.05
36378;BME280;22402;42.746;23.606;2023-01-25T06:45:49;94477.09;;;0.59;96.24
36378;BME280;22402;42.746;23.606;2023-01-25T06:48:14;94469.34;;;0.61;96.41
36378;BME280;22402;42.746;23.606;2023-01-25T06:50:39;94473.53;;;0.63;95.59
36378;BME280;22402;42.746;23.606;2023-01-25T06:53:05;94477.75;;;0.64;96.16
36378;BME280;22402;42.746;23.606;2023-01-25T06:55:30;94475.25;;;0.63;96.16
36378;BME280;22402;42.746;23.606;2023-01-25T06:57:59;94466.00;;;0.59;96.19
36378;BME280;22402;42.746;23.606;2023-01-25T07:00:24;94481.88;;;0.68;96.15
36378;BME280;22402;42.746;23.606;2023-01-25T07:02:49;94476.50;;;0.75;96.26
36378;BME280;22402;42.746;23.606;2023-01-25T07:05:15;94468.81;;;0.75;96.57
36378;BME280;22402;42.746;23.606;2023-01-25T07:07:44;94479.00;;;0.76;96.09
36378;BME280;22402;42.746;23.606;2023-01-25T07:10:09;94479.00;;;0.76;96.84
36378;BME280;22402;42.746;23.606;2023-01-25T07:12:35;94472.13;;;0.77;96.72
36378;BME280;22402;42.746;23.606;2023-01-25T07:15:00;94481.19;;;0.85;96.00
36378;BME280;22402;42.746;23.606;2023-01-25T07:17:25;94487.03;;;0.89;96.21
36378;BME280;22402;42.746;23.606;2023-01-25T07:19:51;94482.75;;;0.89;96.36
36378;BME280;22402;42.746;23.606;2023-01-25T07:22:16;94480.19;;;0.89;96.97
36378;BME280;22402;42.746;23.606;2023-01-25T07:24:41;94485.09;;;0.96;96.87
36378;BME280;22402;42.746;23.606;2023-01-25T07:27:06;94477.44;;;0.94;96.61
36378;BME280;22402;42.746;23.606;2023-01-25T07:29:32;94479.09;;;0.95;97.08
36378;BME280;22402;42.746;23.606;2023-01-25T07:31:57;94482.44;;;0.97;97.23
36378;BME280;22402;42.746;23.606;2023-01-25T07:34:22;94481.50;;;1.00;97.56
36378;BME280;22402;42.746;23.606;2023-01-25T07:36:48;94475.53;;;0.99;97.48
36378;BME280;22402;42.746;23.606;2023-01-25T07:39:13;94482.06;;;1.06;97.39
36378;BME280;22402;42.746;23.606;2023-01-25T07:41:39;94490.56;;;1.08;97.65
36378;BME280;22402;42.746;23.606;2023-01-25T07:44:05;94485.28;;;1.11;97.93
36378;BME280;22402;42.746;23.606;2023-01-25T07:46:30;94481.75;;;1.14;97.73
36378;BME280;22402;42.746;23.606;2023-01-25T07:48:55;94484.13;;;1.19;98.15
36378;BME280;22402;42.746;23.606;2023-01-25T07:51:21;94481.31;;;1.25;98.09
36378;BME280;22402;42.746;23.606;2023-01-25T07:53:56;94488.00;;;1.29;98.89
36378;BME280;22402;42.746;23.606;2023-01-25T07:56:24;94482.75;;;1.32;98.53
36378;BME280;22402;42.746;23.606;2023-01-25T07:58:55;94489.41;;;1.36;98.80
36378;BME280;22402;42.746;23.606;2023-01-25T08:01:22;94499.38;;;1.44;98.67
36378;BME280;22402;42.746;23.606;2023-01-25T08:03:48;94497.56;;;1.46;98.74
36378;BME280;22402;42.746;23.606;2023-01-25T08:06:14;94497.25;;;1.53;98.24
36378;BME280;22402;42.746;23.606;2023-01-25T08:08:46;94497.19;;;1.55;97.86
36378;BME280;22402;42.746;23.606;2023-01-25T08:11:14;94497.13;;;1.56;96.74
36378;BME280;22402;42.746;23.606;2023-01-25T08:13:40;94497.94;;;1.57;95.69
36378;BME280;22402;42.746;23.606;2023-01-25T08:16:06;94506.34;;;1.60;94.67
36378;BME280;22402;42.746;23.606;2023-01-25T08:18:31;94512.38;;;1.61;94.31
36378;BME280;22402;42.746;23.606;2023-01-25T08:20:57;94497.81;;;1.60;93.42
36378;BME280;22402;42.746;23.606;2023-01-25T08:23:23;94500.34;;;1.62;92.28
36378;BME280;22402;42.746;23.606;2023-01-25T08:25:48;94494.28;;;1.63;91.27
36378;BME280;22402;42.746;23.606;2023-01-25T08:28:13;94496.84;;;1.63;91.10
36378;BME280;22402;42.746;23.606;2023-01-25T08:30:38;94490.72;;;1.67;90.16
36378;BME280;22402;42.746;23.606;2023-01-25T08:33:04;94493.78;;;1.54;90.63
36378;BME280;22402;42.746;23.606;2023-01-25T08:35:29;94508.94;;;1.60;90.67
36378;BME280;22402;42.746;23.606;2023-01-25T08:37:54;94498.16;;;1.52;89.88
36378;BME280;22402;42.746;23.606;2023-01-25T08:40:20;94498.34;;;1.48;90.53
36378;BME280;22402;42.746;23.606;2023-01-25T08:42:45;94499.00;;;1.53;91.24
36378;BME280;22402;42.746;23.606;2023-01-25T08:45:10;94492.50;;;1.44;90.92
36378;BME280;22402;42.746;23.606;2023-01-25T08:47:36;94494.28;;;1.42;91.38
36378;BME280;22402;42.746;23.606;2023-01-25T08:50:01;94495.31;;;1.38;90.54
36378;BME280;22402;42.746;23.606;2023-01-25T08:52:27;94506.13;;;1.46;89.83
36378;BME280;22402;42.746;23.606;2023-01-25T08:54:52;94498.47;;;1.45;89.63
36378;BME280;22402;42.746;23.606;2023-01-25T08:57:17;94496.88;;;1.42;90.99
36378;BME280;22402;42.746;23.606;2023-01-25T08:59:43;94496.72;;;1.45;90.02
36378;BME280;22402;42.746;23.606;2023-01-25T09:02:12;94486.28;;;1.50;90.18
36378;BME280;22402;42.746;23.606;2023-01-25T09:04:37;94474.38;;;1.47;89.67
36378;BME280;22402;42.746;23.606;2023-01-25T09:07:03;94483.13;;;1.43;90.17
36378;BME280;22402;42.746;23.606;2023-01-25T09:09:28;94479.13;;;1.36;89.67
36378;BME280;22402;42.746;23.606;2023-01-25T09:11:54;94482.03;;;1.28;90.51
36378;BME280;22402;42.746;23.606;2023-01-25T09:14:20;94481.13;;;1.29;91.24
36378;BME280;22402;42.746;23.606;2023-01-25T09:16:46;94486.09;;;1.34;90.95
36378;BME280;22402;42.746;23.606;2023-01-25T09:19:11;94476.56;;;1.36;91.14
36378;BME280;22402;42.746;23.606;2023-01-25T09:21:37;94477.72;;;1.29;90.47
36378;BME280;22402;42.746;23.606;2023-01-25T09:24:03;94473.28;;;1.32;91.00
36378;BME280;22402;42.746;23.606;2023-01-25T09:26:28;94465.53;;;1.34;91.20
36378;BME280;22402;42.746;23.606;2023-01-25T09:28:54;94464.50;;;1.38;90.49
36378;BME280;22402;42.746;23.606;2023-01-25T09:31:20;94462.06;;;1.35;90.09
36378;BME280;22402;42.746;23.606;2023-01-25T09:33:46;94460.41;;;1.34;90.36
36378;BME280;22402;42.746;23.606;2023-01-25T09:36:12;94448.25;;;1.38;90.03
36378;BME280;22402;42.746;23.606;2023-01-25T09:38:37;94455.63;;;1.45;90.43
36378;BME280;22402;42.746;23.606;2023-01-25T09:46:42;94440.16;;;1.66;90.93
36378;BME280;22402;42.746;23.606;2023-01-25T09:52:19;94429.47;;;1.75;91.67
36378;BME280;22402;42.746;23.606;2023-01-25T09:54:50;94428.31;;;1.82;92.50
36378;BME280;22402;42.746;23.606;2023-01-25T09:57:24;94427.13;;;1.89;91.54
36378;BME280;22402;42.746;23.606;2023-01-25T09:59:51;94413.13;;;1.96;91.92
36378;BME280;22402;42.746;23.606;2023-01-25T10:02:31;94414.63;;;2.00;91.34
36378;BME280;22402;42.746;23.606;2023-01-25T10:05:07;94406.41;;;2.11;90.71
36378;BME280;22402;42.746;23.606;2023-01-25T10:10:29;94409.69;;;2.15;87.77
36378;BME280;22402;42.746;23.606;2023-01-25T10:12:57;94398.91;;;2.07;87.85
36378;BME280;22402;42.746;23.606;2023-01-25T10:15:28;94393.09;;;2.03;88.85
36378;BME280;22402;42.746;23.606;2023-01-25T10:17:59;94390.28;;;2.08;89.27
36378;BME280;22402;42.746;23.606;2023-01-25T10:26:34;94378.47;;;2.03;88.86
36378;BME280;22402;42.746;23.606;2023-01-25T10:31:35;94374.31;;;2.01;89.58
36378;BME280;22402;42.746;23.606;2023-01-25T10:34:16;94364.84;;;2.01;89.50
36378;BME280;22402;42.746;23.606;2023-01-25T10:36:45;94366.69;;;1.99;89.66
36378;BME280;22402;42.746;23.606;2023-01-25T10:39:12;94367.75;;;2.13;89.45
36378;BME280;22402;42.746;23.606;2023-01-25T10:41:40;94370.75;;;2.03;87.00
36378;BME280;22402;42.746;23.606;2023-01-25T10:44:10;94363.81;;;2.05;86.72
36378;BME280;22402;42.746;23.606;2023-01-25T10:46:37;94357.81;;;2.05;86.67
36378;BME280;22402;42.746;23.606;2023-01-25T10:49:26;94355.38;;;2.02;87.26
36378;BME280;22402;42.746;23.606;2023-01-25T10:51:52;94338.25;;;2.02;87.22
36378;BME280;22402;42.746;23.606;2023-01-25T10:54:17;94345.97;;;2.02;87.19
36378;BME280;22402;42.746;23.606;2023-01-25T10:56:43;94356.09;;;2.05;88.13
36378;BME280;22402;42.746;23.606;2023-01-25T10:59:24;94351.94;;;2.03;87.81
36378;BME280;22402;42.746;23.606;2023-01-25T11:01:51;94350.31;;;2.00;88.01
36378;BME280;22402;42.746;23.606;2023-01-25T11:04:30;94349.41;;;2.01;87.21
36378;BME280;22402;42.746;23.606;2023-01-25T11:06:56;94351.84;;;2.04;86.88
36378;BME280;22402;42.746;23.606;2023-01-25T11:12:00;94330.44;;;2.04;87.16
36378;BME280;22402;42.746;23.606;2023-01-25T11:14:31;94329.66;;;2.02;86.80
36378;BME280;22402;42.746;23.606;2023-01-25T11:16:58;94331.41;;;2.01;86.91
36378;BME280;22402;42.746;23.606;2023-01-25T11:19:37;94327.03;;;2.03;86.89
36378;BME280;22402;42.746;23.606;2023-01-25T11:24:43;94321.44;;;2.13;87.99
36378;BME280;22402;42.746;23.606;2023-01-25T11:27:20;94327.50;;;2.12;87.13
36378;BME280;22402;42.746;23.606;2023-01-25T11:30:06;94320.63;;;2.12;86.82
36378;BME280;22402;42.746;23.606;2023-01-25T11:32:32;94331.69;;;2.14;86.68
36378;BME280;22402;42.746;23.606;2023-01-25T11:34:58;94323.25;;;2.11;86.86
36378;BME280;22402;42.746;23.606;2023-01-25T11:42:46;94311.44;;;2.07;87.71
36378;BME280;22402;42.746;23.606;2023-01-25T11:50:44;94300.09;;;2.11;88.18
36378;BME280;22402;42.746;23.606;2023-01-25T12:07:07;94276.66;;;1.99;87.19
36378;BME280;22402;42.746;23.606;2023-01-25T12:21:14;94269.28;;;1.92;88.51
36378;BME280;22402;42.746;23.606;2023-01-25T12:29:37;94258.91;;;1.93;89.99
36378;BME280;22402;42.746;23.606;2023-01-25T12:32:09;94258.19;;;1.91;88.40
36378;BME280;22402;42.746;23.606;2023-01-25T12:34:40;94249.63;;;1.91;89.79
36378;BME280;22402;42.746;23.606;2023-01-25T12:37:22;94251.72;;;1.82;89.81
36378;BME280;22402;42.746;23.606;2023-01-25T12:39:56;94249.22;;;1.81;89.03
36378;BME280;22402;42.746;23.606;2023-01-25T12:42:28;94245.13;;;1.77;88.99
36378;BME280;22402;42.746;23.606;2023-01-25T12:45:44;94249.16;;;1.82;89.76
36378;BME280;22402;42.746;23.606;2023-01-25T12:47:56;94236.97;;;1.86;88.93
36378;BME280;22402;42.746;23.606;2023-01-25T12:50:37;94224.47;;;1.78;88.34
36378;BME280;22402;42.746;23.606;2023-01-25T12:55:33;94230.47;;;1.79;88.51
36378;BME280;22402;42.746;23.606;2023-01-25T13:01:45;94231.34;;;1.78;89.36
36378;BME280;22402;42.746;23.606;2023-01-25T13:09:55;94229.38;;;1.66;89.25
36378;BME280;22402;42.746;23.606;2023-01-25T13:12:21;94235.63;;;1.60;89.80
36378;BME280;22402;42.746;23.606;2023-01-25T13:14:47;94227.22;;;1.56;89.33
36378;BME280;22402;42.746;23.606;2023-01-25T13:19:51;94218.16;;;1.49;89.88
36378;BME280;22402;42.746;23.606;2023-01-25T13:27:42;94210.09;;;1.38;90.99
36378;BME280;22402;42.746;23.606;2023-01-25T13:30:30;94216.63;;;1.45;90.74
36378;BME280;22402;42.746;23.606;2023-01-25T13:33:01;94214.13;;;1.44;90.68
36378;BME280;22402;42.746;23.606;2023-01-25T13:35:36;94210.94;;;1.39;90.72
36378;BME280;22402;42.746;23.606;2023-01-25T13:40:37;94212.72;;;1.36;91.00
36378;BME280;22402;42.746;23.606;2023-01-25T13:43:13;94209.56;;;1.31;90.63
36378;BME280;22402;42.746;23.606;2023-01-25T13:45:41;94217.81;;;1.38;91.22
36378;BME280;22402;42.746;23.606;2023-01-25T13:48:15;94219.75;;;1.33;91.22
36378;BME280;22402;42.746;23.606;2023-01-25T13:50:46;94218.59;;;1.40;91.21
36378;BME280;22402;42.746;23.606;2023-01-25T13:55:52;94228.59;;;1.46;91.36
36378;BME280;22402;42.746;23.606;2023-01-25T13:58:18;94227.03;;;1.42;91.43
36378;BME280;22402;42.746;23.606;2023-01-25T14:01:03;94222.88;;;1.40;90.92
36378;BME280;22402;42.746;23.606;2023-01-25T14:03:35;94218.00;;;1.33;91.19
36378;BME280;22402;42.746;23.606;2023-01-25T14:06:06;94234.88;;;1.39;90.99
36378;BME280;22402;42.746;23.606;2023-01-25T14:08:38;94230.53;;;1.41;91.15
36378;BME280;22402;42.746;23.606;2023-01-25T14:11:04;94227.13;;;1.41;91.48
36378;BME280;22402;42.746;23.606;2023-01-25T14:13:30;94234.69;;;1.44;91.76
36378;BME280;22402;42.746;23.606;2023-01-25T14:15:57;94221.63;;;1.48;91.88
36378;BME280;22402;42.746;23.606;2023-01-25T14:18:32;94225.94;;;1.48;91.54
36378;BME280;22402;42.746;23.606;2023-01-25T14:21:11;94222.31;;;1.52;91.92
36378;BME280;22402;42.746;23.606;2023-01-25T14:23:37;94224.19;;;1.48;91.93
36378;BME280;22402;42.746;23.606;2023-01-25T14:26:11;94221.31;;;1.54;91.82
36378;BME280;22402;42.746;23.606;2023-01-25T14:28:43;94217.94;;;1.54;91.78
36378;BME280;22402;42.746;23.606;2023-01-25T14:31:18;94214.47;;;1.55;90.71
36378;BME280;22402;42.746;23.606;2023-01-25T14:33:44;94217.56;;;1.62;90.03
36378;BME280;22402;42.746;23.606;2023-01-25T14:36:12;94218.56;;;1.59;89.56
36378;BME280;22402;42.746;23.606;2023-01-25T14:38:40;94215.91;;;1.60;89.07
36378;BME280;22402;42.746;23.606;2023-01-25T14:41:12;94217.78;;;1.57;89.73
36378;BME280;22402;42.746;23.606;2023-01-25T14:43:43;94216.03;;;1.57;88.89
36378;BME280;22402;42.746;23.606;2023-01-25T14:46:22;94214.38;;;1.56;88.01
36378;BME280;22402;42.746;23.606;2023-01-25T14:48:48;94204.53;;;1.47;88.45
36378;BME280;22402;42.746;23.606;2023-01-25T14:51:24;94205.44;;;1.46;88.23
36378;BME280;22402;42.746;23.606;2023-01-25T14:54:04;94202.75;;;1.30;88.68
36378;BME280;22402;42.746;23.606;2023-01-25T14:56:34;94202.06;;;1.27;89.04
36378;BME280;22402;42.746;23.606;2023-01-25T14:59:02;94198.84;;;1.22;89.35